Terminal Aerodrome Forecast
Issued by NWS

Home | Current Version | Previous Version | Text Only | Print | Product List | Glossary On
Versions: 1 2 3 4 5 6 7 8 9 10 11 12 13 14 15 16 17 18 19 20 21 22 23 24 25 26
000
FTUS46 KSEW 182100 AAA
TAFSEA
TAF AMD
KSEA 182101Z 1821/1924 21008KT P6SM VCSH BKN020 OVC070
     FM190700 19005KT P6SM BKN015 OVC035
     FM191200 18005KT P6SM OVC015=

USA.gov is the U.S. government's official web portal to all federal, state and local government web resources and services.